Decoded Metar for KHST (HOMESTEAD in FL, USA) (IATA:HST) | Meteo·Mobile Aviation Weather
aviador You're here:

KHST Decoded Metar

HOMESTEAD in FL, USA
Report Time2019-02-16 06:56:00
UTC Time2019-02-16 07:06:07
Flight Rules vfr VFR
WindCalm
Visibility9999 m
Phenomena:N/A
Clouds:N/A
Expected CloudBase > 800 ft AGL from Temp-Dew spread
CeilingNone
Temp17°C (ISA +2)
Dew Point15°C (88% RH)
QNH1014 hPa
Density Alt436 ft
Elevation7 ft
Report Wrong Elevation
Raw Report
KHST 160656Z AUTO 00000KT 10SM CLR 17/15 A2993 RMK AO2 SLP139
T01660151 FZRANO $=

Extra information for KHST:More info

Metar Taf Metar & Taf Last 4 Metars F.Rules Stats Wind Profile Meteogram Temp Stats Airport Information Weather charts Add Link Nearby VenuesMetar ALERT Operation Metar Decoded Social comments

AIRNAV info for KHST